Weather History for KFMH - April, 2015

Change the Weather History Date:

Monday, April 27, 2015

  Actual Average Record
Temperature  
Mean Temperature 48 °F -  
Max Temperature 55 °F 57 °F 66 °F (2011)
Min Temperature 42 °F 39 °F 33 °F (2002)
Degree Days  
Heating Degree Days 16    
Moisture  
Dew Point 38 °F    
Average Humidity 69    
Maximum Humidity 93    
Minimum Humidity 43    
Precipitation  
Precipitation 0.01 in - - ()
Sea Level Pressure  
Sea Level Pressure 29.57 in    
Wind  
Wind Speed 6 mph (NNW)    
Max Wind Speed 16 mph    
Max Gust Speed 29 mph    
Visibility 10 miles    
Events Rain    
Averages and records for this station are not official NWS values.
T = Trace of Precipitation, MM = Missing Value Source: NWS Daily Summary

Daily Weather History Graph

Daily Weather History Graph

Search for Another Location

Airport or City:

Trip Planner

Search our weather history database for the weather conditions in past years. The results will help you decide how hot, cold, wet, or windy it might be!

Date:

Astronomy

Apr. 27, 2015 Rise Set
Actual Time 5:44 AM EDT 7:35 PM EDT
Civil Twilight 5:14 AM EDT 8:05 PM EDT
Nautical Twilight 4:38 AM EDT 8:41 PM EDT
Astronomical Twilight 3:59 AM EDT 9:21 PM EDT
Moon 1:36 PM EDT (4/27) 2:28 AM EDT (4/27)
Length of Visible Light 14h 50m
Length of Day
13h 50m
Waxing Gibbous, 66% of the Moon is Illuminated
Apr 27
Waxing Gibbous
May 3
Full
May 11
Last Quarter
May 18
New
May 25
First Quarter

Hourly Weather History & Observations

Time (EDT) Temp. Windchill Dew Point Humidity Pressure Visibility Wind Dir Wind Speed Gust Speed Precip Events Conditions
12:15 AM 44.6 °F 42.2 °F 39.2 °F 81% 29.61 in 10.0 mi West 4.6 mph - N/A   Overcast
12:35 AM 44.6 °F 42.2 °F 41.0 °F 87% 29.61 in 10.0 mi West 4.6 mph - N/A   Overcast
12:55 AM 42.8 °F 40.1 °F 41.0 °F 93% 29.60 in 10.0 mi WNW 4.6 mph - N/A   Overcast
1:15 AM 42.8 °F 40.1 °F 41.0 °F 93% 29.60 in 10.0 mi WNW 4.6 mph - N/A   Overcast
1:35 AM 44.6 °F 41.4 °F 41.0 °F 87% 29.60 in 10.0 mi WNW 5.8 mph - N/A   Overcast
1:55 AM 44.6 °F 41.4 °F 39.2 °F 81% 29.60 in 10.0 mi NW 5.8 mph - N/A   Overcast
2:15 AM 46.4 °F 43.5 °F 37.4 °F 71% 29.59 in 10.0 mi NW 5.8 mph - N/A   Overcast
2:35 AM 46.4 °F 44.3 °F 37.4 °F 71% 29.59 in 10.0 mi NW 4.6 mph - N/A   Overcast
2:55 AM 46.4 °F 43.5 °F 37.4 °F 71% 29.59 in 10.0 mi NW 5.8 mph - N/A   Overcast
3:15 AM 44.6 °F 42.2 °F 37.4 °F 76% 29.59 in 10.0 mi NW 4.6 mph - N/A   Overcast
3:35 AM 44.6 °F - 35.6 °F 71% 29.59 in 10.0 mi Calm Calm - N/A   Overcast
3:55 AM 42.8 °F - 37.4 °F 81% 29.59 in 10.0 mi Calm Calm - N/A   Overcast
4:15 AM 42.8 °F - 37.4 °F 81% 29.59 in 10.0 mi Calm Calm - N/A   Overcast
4:35 AM 42.8 °F - 37.4 °F 81% 29.59 in 10.0 mi Calm Calm - N/A   Overcast
4:55 AM 42.8 °F - 37.4 °F 81% 29.58 in 10.0 mi Calm Calm - N/A   Overcast
5:15 AM 44.6 °F 41.4 °F 35.6 °F 71% 29.58 in 10.0 mi NNW 5.8 mph - N/A   Overcast
5:35 AM 44.6 °F 40.7 °F 35.6 °F 71% 29.58 in 10.0 mi NNW 6.9 mph 13.8 mph N/A   Overcast
5:55 AM 44.6 °F 40.7 °F 35.6 °F 71% 29.58 in 10.0 mi NNW 6.9 mph - N/A   Overcast
6:15 AM 44.6 °F 40.7 °F 33.8 °F 66% 29.59 in 10.0 mi NNW 6.9 mph - N/A   Overcast
6:35 AM 44.6 °F 41.4 °F 33.8 °F 66% 29.59 in 10.0 mi NNW 5.8 mph - N/A   Partly Cloudy
6:55 AM 44.6 °F 40.7 °F 33.8 °F 66% 29.59 in 10.0 mi NNW 6.9 mph - N/A   Partly Cloudy
7:15 AM 46.4 °F 42.4 °F 35.6 °F 66% 29.59 in 10.0 mi NNW 8.1 mph - N/A   Mostly Cloudy
7:35 AM 48.2 °F - 35.6 °F 62% 29.59 in 10.0 mi NNW 9.2 mph - N/A   Overcast
7:55 AM 48.2 °F - 35.6 °F 62% 29.59 in 10.0 mi NNW 9.2 mph - N/A   Overcast
8:15 AM 50.0 °F - 35.6 °F 58% 29.59 in 10.0 mi NNW 11.5 mph 18.4 mph N/A   Overcast
8:35 AM 50.0 °F - 35.6 °F 58% 29.59 in 10.0 mi NNW 13.8 mph - N/A   Overcast
8:55 AM 50.0 °F - 35.6 °F 58% 29.58 in 10.0 mi NNW 10.4 mph - N/A   Overcast
9:15 AM 50.0 °F - 35.6 °F 58% 29.58 in 10.0 mi NNW 11.5 mph 17.3 mph N/A   Overcast
9:35 AM 50.0 °F - 35.6 °F 58% 29.58 in 10.0 mi NNW 9.2 mph - N/A   Overcast
9:55 AM 51.8 °F - 35.6 °F 54% 29.58 in 10.0 mi Variable 5.8 mph 13.8 mph N/A   Overcast
10:15 AM 51.8 °F - 35.6 °F 54% 29.57 in 10.0 mi North 10.4 mph - N/A   Overcast
10:35 AM 53.6 °F - 37.4 °F 54% 29.58 in 10.0 mi North 5.8 mph - N/A   Overcast
10:55 AM 53.6 °F - 35.6 °F 51% 29.57 in 10.0 mi WNW 4.6 mph 13.8 mph N/A   Overcast
11:15 AM 53.6 °F - 35.6 °F 51% 29.57 in 10.0 mi NNW 8.1 mph - N/A   Overcast
11:35 AM 53.6 °F - 37.4 °F 54% 29.57 in 10.0 mi NNE 4.6 mph 12.7 mph N/A   Overcast
11:55 AM 53.6 °F - 35.6 °F 51% 29.56 in 10.0 mi NW 8.1 mph - N/A   Overcast
12:15 PM 55.4 °F - 35.6 °F 47% 29.55 in 10.0 mi West 13.8 mph - N/A   Overcast
12:35 PM 53.6 °F - 37.4 °F 54% 29.55 in 10.0 mi NE 4.6 mph 12.7 mph N/A   Overcast
12:55 PM 53.6 °F - 37.4 °F 54% 29.54 in 10.0 mi Calm Calm - N/A   Overcast
1:15 PM 53.6 °F - 37.4 °F 54% 29.54 in 10.0 mi Variable 4.6 mph - N/A   Overcast
1:35 PM 53.6 °F - 37.4 °F 54% 29.54 in 10.0 mi Variable 5.8 mph - N/A   Overcast
1:55 PM 51.8 °F - 39.2 °F 62% 29.54 in 10.0 mi ENE 3.5 mph - N/A   Overcast
2:15 PM 51.8 °F - 39.2 °F 62% 29.54 in 10.0 mi NNE 8.1 mph - N/A   Overcast
2:35 PM 51.8 °F - 39.2 °F 62% 29.53 in 10.0 mi Calm Calm - N/A   Overcast
2:55 PM 55.4 °F - 37.4 °F 51% 29.52 in 10.0 mi WNW 12.7 mph - N/A   Overcast
3:15 PM 55.4 °F - 35.6 °F 47% 29.52 in 10.0 mi NW 9.2 mph 18.4 mph N/A   Overcast
3:35 PM 55.4 °F - 35.6 °F 47% 29.51 in 10.0 mi NW 12.7 mph - N/A   Overcast
3:55 PM 55.4 °F - 33.8 °F 44% 29.51 in 10.0 mi NW 10.4 mph - N/A   Overcast
4:15 PM 55.4 °F - 35.6 °F 47% 29.51 in 10.0 mi NNW 9.2 mph - N/A   Overcast
4:35 PM 55.4 °F - 35.6 °F 47% 29.51 in 10.0 mi Variable 6.9 mph 16.1 mph N/A   Overcast
4:55 PM 53.6 °F - 37.4 °F 54% 29.53 in 10.0 mi NNE 9.2 mph - N/A   Overcast
5:15 PM 51.8 °F - 39.2 °F 62% 29.54 in 9.0 mi North 9.2 mph 18.4 mph N/A   Light Drizzle
5:35 PM 50.0 °F - 39.2 °F 66% 29.55 in 8.0 mi North 8.1 mph 15.0 mph N/A Rain Light Rain
5:55 PM 50.0 °F - 41.0 °F 71% 29.55 in 9.0 mi NNE 11.5 mph - N/A   Light Drizzle
6:15 PM 48.2 °F - 41.0 °F 76% 29.56 in 8.0 mi NE 11.5 mph - N/A   Light Drizzle
6:35 PM 46.4 °F 42.4 °F 41.0 °F 81% 29.57 in 5.0 mi NNE 8.1 mph 13.8 mph N/A   Light Drizzle
6:55 PM 46.4 °F 43.5 °F 41.0 °F 81% 29.57 in 8.0 mi North 5.8 mph - N/A   Mostly Cloudy
7:15 PM 46.4 °F 45.2 °F 41.0 °F 81% 29.57 in 10.0 mi NNW 3.5 mph - N/A   Overcast
7:35 PM 46.4 °F 45.2 °F 41.0 °F 81% 29.57 in 10.0 mi NW 3.5 mph - N/A   Overcast
7:55 PM 46.4 °F 44.3 °F 41.0 °F 81% 29.56 in 10.0 mi NW 4.6 mph - N/A   Overcast
8:15 PM 44.6 °F 41.4 °F 41.0 °F 87% 29.56 in 10.0 mi WNW 5.8 mph - N/A   Mostly Cloudy
8:35 PM 44.6 °F 41.4 °F 41.0 °F 87% 29.56 in 10.0 mi WNW 5.8 mph - N/A   Overcast
8:55 PM 44.6 °F 40.2 °F 41.0 °F 87% 29.56 in 10.0 mi WNW 8.1 mph - N/A   Scattered Clouds
9:15 PM 44.6 °F 40.7 °F 41.0 °F 87% 29.56 in 10.0 mi WNW 6.9 mph - N/A   Scattered Clouds
9:35 PM 44.6 °F 40.2 °F 42.8 °F 93% 29.56 in 10.0 mi WNW 8.1 mph - N/A   Mostly Cloudy
9:55 PM 46.4 °F 40.7 °F 41.0 °F 81% 29.59 in 4.0 mi North 12.7 mph 28.8 mph N/A Rain Light Rain
10:15 PM 44.6 °F 38.4 °F 41.0 °F 87% 29.59 in 10.0 mi North 12.7 mph 18.4 mph N/A Rain Light Rain
10:35 PM 44.6 °F 39.2 °F 41.0 °F 87% 29.59 in 5.0 mi North 10.4 mph 20.7 mph N/A   Light Drizzle
10:55 PM 44.6 °F 40.7 °F 41.0 °F 87% 29.58 in 10.0 mi North 6.9 mph - N/A   Light Drizzle
11:15 PM 44.6 °F 38.4 °F 42.8 °F 93% 29.59 in 5.0 mi NNE 12.7 mph 18.4 mph N/A Rain Light Rain
11:35 PM 44.6 °F 39.2 °F 41.0 °F 87% 29.60 in 7.0 mi NNE 10.4 mph 18.4 mph N/A Rain Light Rain
11:55 PM 44.6 °F 40.7 °F 42.8 °F 93% 29.61 in 9.0 mi North 6.9 mph - N/A   Light Drizzle